Time;durP1;ratioP1;P1;durP2;ratioP2;P2;SDS_P1;SDS_P2;PMS_P1;PMS_P2;Temp;Humidity;BMP_temperature;BMP_pressure;BME280_temperature;BME280_humidity;BME280_pressure;Samples;Min_cycle;Max_cycle;Signal;HPM_P1;HPM_P2
2022/08/30 00:02:34;;;;;;;10.82;4.80;;;;;;;25.34;53.90;98846.31;4490829;31;20781;-84
2022/08/30 00:05:01;;;;;;;9.77;4.28;;;;;;;25.44;53.90;98851.47;4503695;31;20092;-84
2022/08/30 00:07:26;;;;;;;10.48;4.72;;;;;;;25.45;53.90;98840.53;4503342;31;20099;-85
2022/08/30 00:09:52;;;;;;;11.60;5.00;;;;;;;25.52;53.65;98840.66;4498794;31;20080;-83
2022/08/30 00:12:19;;;;;;;10.68;4.53;;;;;;;25.56;53.49;98847.38;4487905;31;20084;-84
2022/08/30 00:14:45;;;;;;;11.10;4.43;;;;;;;25.53;53.32;98846.91;4488092;31;20114;-84
2022/08/30 00:17:10;;;;;;;11.12;5.00;;;;;;;25.55;53.21;98842.16;4488115;31;20084;-84
2022/08/30 00:19:37;;;;;;;10.70;4.72;;;;;;;25.59;53.05;98838.91;4486937;32;20123;-83
2022/08/30 00:22:03;;;;;;;12.25;5.28;;;;;;;25.63;53.02;98840.25;4488161;31;20092;-83
2022/08/30 00:24:29;;;;;;;12.05;5.00;;;;;;;25.36;53.16;98846.16;4488087;31;20122;-83
2022/08/30 00:26:54;;;;;;;12.02;4.97;;;;;;;25.47;53.00;98845.75;4486866;32;20107;-84
2022/08/30 00:29:20;;;;;;;10.93;5.12;;;;;;;25.48;52.97;98842.87;4487989;31;20068;-83
2022/08/30 00:31:45;;;;;;;12.52;5.12;;;;;;;25.48;52.24;98839.34;4486732;32;20592;-84
2022/08/30 00:34:11;;;;;;;11.82;5.07;;;;;;;25.49;51.88;98844.53;4487941;31;20141;-84
2022/08/30 00:36:36;;;;;;;11.35;4.97;;;;;;;25.55;52.08;98840.28;4487845;31;20076;-84
2022/08/30 00:39:03;;;;;;;11.60;5.05;;;;;;;25.55;52.37;98837.59;4487930;31;20133;-84
2022/08/30 00:41:28;;;;;;;11.05;5.30;;;;;;;25.58;52.23;98839.94;4487922;31;20111;-83
2022/08/30 00:43:53;;;;;;;11.43;5.40;;;;;;;25.51;51.86;98847.91;4487786;31;20080;-84
2022/08/30 00:46:19;;;;;;;11.38;5.30;;;;;;;25.29;51.75;98846.84;4487924;32;20144;-84
2022/08/30 00:48:46;;;;;;;12.52;5.78;;;;;;;25.04;52.35;98842.56;4487721;31;20153;-84
2022/08/30 00:51:13;;;;;;;12.60;5.90;;;;;;;24.67;52.90;98846.75;4486671;32;20511;-83
2022/08/30 00:53:43;;;;;;;12.00;5.53;;;;;;;24.62;53.01;98846.44;4486596;32;20122;-84
2022/08/30 00:56:10;;;;;;;12.45;5.65;;;;;;;24.93;52.36;98839.22;4486976;32;20080;-84
2022/08/30 00:58:39;;;;;;;13.27;5.75;;;;;;;25.03;52.27;98835.50;4487091;32;20088;-83
2022/08/30 01:01:06;;;;;;;11.90;5.43;;;;;;;25.10;52.41;98841.87;4486780;32;20108;-83
2022/08/30 01:03:32;;;;;;;12.07;6.00;;;;;;;25.19;52.30;98848.91;4487802;32;20088;-83
2022/08/30 01:05:58;;;;;;;13.62;6.12;;;;;;;25.23;51.86;98852.97;4486925;32;20472;-83
2022/08/30 01:08:24;;;;;;;13.93;6.30;;;;;;;25.06;51.89;98845.94;4486793;32;20204;-83
2022/08/30 01:10:50;;;;;;;11.12;5.82;;;;;;;24.93;52.34;98846.47;4487945;31;20104;-83
2022/08/30 01:13:16;;;;;;;11.90;6.03;;;;;;;25.02;51.90;98842.75;4486770;32;20737;-83
2022/08/30 01:15:42;;;;;;;11.10;5.50;;;;;;;25.08;51.64;98842.03;4487830;31;20137;-83
2022/08/30 01:18:10;;;;;;;12.10;5.62;;;;;;;25.04;51.85;98835.31;4486799;32;20132;-83
2022/08/30 01:20:46;;;;;;;13.20;5.70;;;;;;;25.08;51.94;98835.81;4487773;31;20143;-83
2022/08/30 01:23:14;;;;;;;11.48;5.60;;;;;;;25.19;51.79;98835.44;4486860;32;20092;-83
2022/08/30 01:25:41;;;;;;;12.85;5.95;;;;;;;25.22;51.82;98839.62;4486467;32;20096;-83
2022/08/30 01:28:13;;;;;;;11.77;5.65;;;;;;;25.23;51.85;98834.09;4486372;32;20085;-83
2022/08/30 01:30:41;;;;;;;11.40;5.68;;;;;;;25.26;51.86;98836.41;4486417;32;20092;-83
2022/08/30 01:33:07;;;;;;;10.85;5.43;;;;;;;25.22;51.99;98831.53;4487408;32;20509;-83
2022/08/30 01:35:57;;;;;;;12.15;5.93;;;;;;;25.26;51.76;98830.19;4486285;32;20451;-83
2022/08/30 01:38:25;;;;;;;11.60;5.50;;;;;;;25.21;51.79;98825.31;4487917;31;20072;-83
2022/08/30 01:40:59;;;;;;;12.15;6.07;;;;;;;25.08;52.08;98827.72;4486218;32;20127;-83
2022/08/30 01:43:25;;;;;;;12.45;6.12;;;;;;;25.09;52.06;98830.25;4487553;31;20478;-82
2022/08/30 01:45:50;;;;;;;13.70;6.12;;;;;;;24.92;52.38;98818.69;4487456;31;20120;-83
2022/08/30 01:48:16;;;;;;;13.35;5.65;;;;;;;25.00;52.22;98822.38;4473172;32;20098;-83
2022/08/30 01:50:41;;;;;;;12.05;6.22;;;;;;;25.04;52.15;98826.41;4487423;31;20138;-82
2022/08/30 01:53:08;;;;;;;12.73;6.35;;;;;;;25.05;52.19;98822.69;4486075;32;20100;-83
2022/08/30 01:55:33;;;;;;;12.57;5.95;;;;;;;25.04;52.31;98821.84;4487342;31;20079;-84
2022/08/30 01:57:59;;;;;;;11.35;6.12;;;;;;;25.07;52.21;98815.25;4486266;32;20408;-84
2022/08/30 02:00:25;;;;;;;11.80;5.68;;;;;;;25.05;52.20;98815.47;4486766;31;20249;-84
2022/08/30 02:02:51;;;;;;;11.30;5.70;;;;;;;24.91;52.59;98816.19;4487157;31;20451;-83
2022/08/30 02:05:16;;;;;;;13.55;5.70;;;;;;;24.96;52.59;98816.50;4485954;32;20088;-82
2022/08/30 02:07:42;;;;;;;12.73;5.97;;;;;;;24.82;52.99;98819.91;4487434;31;20415;-83
2022/08/30 02:10:07;;;;;;;12.07;5.75;;;;;;;24.84;52.96;98820.56;4486002;32;20104;-83
2022/08/30 02:12:33;;;;;;;11.95;5.50;;;;;;;24.89;52.91;98821.72;4487262;31;20111;-84
2022/08/30 02:14:59;;;;;;;11.48;5.60;;;;;;;24.82;53.21;98814.53;4486029;32;20192;-83
2022/08/30 02:17:26;;;;;;;13.20;6.05;;;;;;;24.83;53.33;98813.53;4485970;32;20106;-84
2022/08/30 02:19:52;;;;;;;12.35;6.53;;;;;;;24.80;53.53;98808.47;4486367;32;20092;-84
2022/08/30 02:22:19;;;;;;;11.40;5.87;;;;;;;24.83;53.49;98814.34;4486320;32;20118;-84
2022/08/30 02:24:45;;;;;;;11.68;5.75;;;;;;;24.86;53.45;98802.38;4473319;32;20115;-84
2022/08/30 02:27:10;;;;;;;12.75;6.03;;;;;;;24.77;53.78;98803.44;4487452;32;20076;-84
2022/08/30 02:29:36;;;;;;;11.85;5.20;;;;;;;24.81;53.75;98802.09;4486163;32;20172;-82
2022/08/30 02:32:01;;;;;;;10.88;5.00;;;;;;;24.82;53.73;98806.44;4487475;31;20093;-82
2022/08/30 02:34:30;;;;;;;10.43;5.10;;;;;;;24.81;53.78;98813.69;4487266;31;20438;-82
2022/08/30 02:36:55;;;;;;;11.10;4.97;;;;;;;24.84;53.76;98804.41;4487254;31;20328;-82
2022/08/30 02:39:21;;;;;;;11.55;4.95;;;;;;;24.84;53.82;98815.19;4486003;32;20122;-82
2022/08/30 02:41:47;;;;;;;13.25;5.60;;;;;;;24.78;54.02;98810.50;4486993;31;20448;-82
2022/08/30 02:44:12;;;;;;;12.55;5.32;;;;;;;24.76;54.09;98807.16;4487110;31;20378;-82
2022/08/30 02:46:38;;;;;;;12.73;5.22;;;;;;;24.77;54.15;98811.53;4487083;32;20098;-82
2022/08/30 02:49:04;;;;;;;11.30;5.22;;;;;;;24.76;54.26;98812.53;4485786;32;20112;-81
2022/08/30 02:51:29;;;;;;;11.50;5.57;;;;;;;24.73;54.39;98808.34;4487041;31;20093;-84
2022/08/30 02:53:55;;;;;;;11.18;5.22;;;;;;;24.61;54.87;98812.41;4485710;32;20096;-84
2022/08/30 02:56:20;;;;;;;12.65;5.07;;;;;;;24.67;54.72;98806.34;4486865;31;20068;-84
2022/08/30 02:58:47;;;;;;;11.52;5.30;;;;;;;24.70;54.67;98812.19;4486770;32;20112;-83
2022/08/30 03:01:14;;;;;;;11.80;5.75;;;;;;;24.73;54.65;98805.66;4487194;31;20093;-83
2022/08/30 03:03:41;;;;;;;11.57;5.22;;;;;;;24.64;54.95;98804.00;4485487;32;20469;-84
2022/08/30 03:06:06;;;;;;;11.65;5.45;;;;;;;24.34;55.89;98814.50;4486928;31;20103;-84
2022/08/30 03:08:33;;;;;;;11.00;5.35;;;;;;;24.47;55.47;98808.56;4486670;31;20097;-84
2022/08/30 03:10:59;;;;;;;12.00;5.22;;;;;;;24.49;55.47;98807.38;4485576;32;20112;-84
2022/08/30 03:13:24;;;;;;;13.25;5.25;;;;;;;24.53;55.32;98814.13;4485531;32;20159;-84
2022/08/30 03:15:50;;;;;;;11.20;5.10;;;;;;;24.55;55.30;98808.59;4485507;32;20140;-84
2022/08/30 03:18:17;;;;;;;11.07;5.15;;;;;;;24.55;55.27;98810.41;4485390;32;20109;-84
2022/08/30 03:20:42;;;;;;;11.20;5.77;;;;;;;24.55;55.24;98813.09;4486665;31;20527;-84
2022/08/30 03:23:08;;;;;;;13.10;4.72;;;;;;;24.53;55.28;98815.97;4486618;31;20173;-84
2022/08/30 03:25:33;;;;;;;10.85;5.10;;;;;;;24.55;55.27;98823.88;4485309;32;20128;-84
2022/08/30 03:27:59;;;;;;;11.05;5.45;;;;;;;24.51;55.26;98824.25;4486592;31;20100;-84
2022/08/30 03:30:25;;;;;;;11.23;5.22;;;;;;;24.53;55.13;98821.34;4486623;32;20448;-84
2022/08/30 03:32:50;;;;;;;11.93;5.55;;;;;;;24.49;55.16;98833.44;4472037;32;20109;-84
2022/08/30 03:35:17;;;;;;;12.52;5.82;;;;;;;24.49;55.14;98834.31;4486336;31;20111;-83
2022/08/30 03:37:43;;;;;;;11.65;5.53;;;;;;;24.53;55.01;98832.97;4486569;31;20119;-84
2022/08/30 03:40:10;;;;;;;12.55;5.70;;;;;;;24.45;55.25;98840.19;4485302;32;20120;-83
2022/08/30 03:42:36;;;;;;;11.45;5.82;;;;;;;24.24;55.47;98827.28;4485320;32;20092;-84
2022/08/30 03:45:03;;;;;;;11.57;5.35;;;;;;;24.39;54.74;98840.88;4486249;31;20080;-84
2022/08/30 03:47:29;;;;;;;11.27;5.55;;;;;;;24.40;54.53;98835.34;4485144;32;20096;-84
2022/08/30 03:49:55;;;;;;;11.20;5.43;;;;;;;24.44;54.33;98839.38;4486338;31;20156;-84
2022/08/30 03:52:20;;;;;;;12.25;5.90;;;;;;;24.37;54.53;98834.84;4484940;32;20092;-84
2022/08/30 03:54:46;;;;;;;11.93;5.40;;;;;;;24.39;54.50;98843.56;4486365;31;20129;-83
2022/08/30 03:57:11;;;;;;;11.60;5.60;;;;;;;24.38;54.46;98847.28;4486408;31;20092;-82
2022/08/30 03:59:37;;;;;;;10.95;5.57;;;;;;;24.32;54.57;98849.66;4486310;31;20136;-82
2022/08/30 04:02:03;;;;;;;14.07;6.10;;;;;;;24.36;54.43;98841.22;4486277;31;20128;-82
2022/08/30 04:04:29;;;;;;;12.35;5.30;;;;;;;24.40;54.28;98847.97;4486067;31;20103;-83
2022/08/30 04:06:55;;;;;;;10.95;5.75;;;;;;;24.25;54.71;98840.56;4486241;32;20096;-82
2022/08/30 04:09:20;;;;;;;11.35;5.87;;;;;;;24.29;54.72;98849.16;4486244;31;20088;-83
2022/08/30 04:11:46;;;;;;;11.68;5.85;;;;;;;24.31;54.55;98850.66;4484682;32;20114;-83
2022/08/30 04:14:11;;;;;;;12.10;5.57;;;;;;;24.41;54.15;98841.56;4484621;32;20097;-83
2022/08/30 04:16:37;;;;;;;11.82;5.25;;;;;;;24.41;54.00;98847.78;4484675;32;20093;-83
2022/08/30 04:19:03;;;;;;;11.48;5.95;;;;;;;24.37;54.19;98851.81;4485897;31;20118;-83
2022/08/30 04:21:28;;;;;;;12.10;5.40;;;;;;;24.48;54.05;98858.72;4485814;31;20133;-84
2022/08/30 04:23:54;;;;;;;13.80;5.93;;;;;;;24.47;54.02;98865.97;4486117;31;20451;-84
2022/08/30 04:26:20;;;;;;;13.68;5.80;;;;;;;24.48;53.93;98869.50;4488034;31;20107;-82
2022/08/30 04:28:45;;;;;;;12.10;5.43;;;;;;;24.53;53.37;98875.22;4488000;31;20360;-81
2022/08/30 04:31:13;;;;;;;11.60;5.78;;;;;;;24.59;53.01;98874.56;4487933;31;20111;-82
2022/08/30 04:33:39;;;;;;;11.20;5.57;;;;;;;24.66;52.84;98880.09;4486692;32;20080;-82
2022/08/30 04:36:07;;;;;;;11.35;5.75;;;;;;;24.71;52.55;98886.63;4487876;31;20482;-81
2022/08/30 04:38:32;;;;;;;;;;;;;;;24.79;52.30;98885.78;4487126;32;20110;-82
2022/08/30 04:40:58;;;;;;;12.15;5.75;;;;;;;25.02;51.70;98896.66;4488042;31;20239;-82
2022/08/30 04:43:26;;;;;;;13.30;6.00;;;;;;;25.06;51.58;98902.53;4487814;31;20133;-82
2022/08/30 04:45:53;;;;;;;11.25;5.90;;;;;;;25.25;50.99;98904.03;4487937;31;20255;-82
2022/08/30 04:48:21;;;;;;;11.40;5.70;;;;;;;25.29;50.88;98902.66;4473483;32;20172;-82
2022/08/30 04:50:47;;;;;;;11.93;5.45;;;;;;;25.50;50.44;98905.56;4487919;31;20151;-82
2022/08/30 04:53:13;;;;;;;11.80;5.53;;;;;;;25.59;49.99;98905.53;4486869;32;20092;-83
2022/08/30 04:55:40;;;;;;;12.60;6.05;;;;;;;25.66;49.74;98903.81;4487734;31;20168;-83
2022/08/30 04:58:05;;;;;;;10.45;5.30;;;;;;;25.79;49.47;98905.94;4486677;32;20562;-84
2022/08/30 05:00:31;;;;;;;11.27;5.55;;;;;;;25.97;49.41;98900.25;4487716;32;20110;-84
2022/08/30 05:02:56;;;;;;;12.82;5.35;;;;;;;25.97;49.64;98908.34;4487483;31;20383;-84
2022/08/30 05:05:40;;;;;;;10.90;5.28;;;;;;;26.03;50.40;98915.72;4487751;31;20108;-84
2022/08/30 05:08:11;;;;;;;11.68;5.12;;;;;;;26.13;48.87;98913.63;4486796;32;20088;-83
2022/08/30 05:10:39;;;;;;;11.85;5.72;;;;;;;26.12;47.84;98913.81;4486616;32;20114;-83
2022/08/30 05:13:05;;;;;;;15.52;5.57;;;;;;;26.20;48.04;98914.59;4473177;32;20100;-82
2022/08/30 05:15:31;;;;;;;11.20;5.10;;;;;;;26.38;48.22;98918.81;4486399;32;20470;-84
2022/08/30 05:17:56;;;;;;;10.95;5.07;;;;;;;26.52;48.51;98927.97;4487642;31;20093;-83
2022/08/30 05:20:22;;;;;;;13.48;5.68;;;;;;;26.42;49.23;98923.66;4486464;32;20497;-83
2022/08/30 05:22:50;;;;;;;13.85;6.07;;;;;;;26.44;49.04;98920.78;4487243;32;20110;-84
2022/08/30 05:25:21;;;;;;;12.05;5.68;;;;;;;26.60;48.91;98925.25;4487576;31;20093;-85
2022/08/30 05:27:46;;;;;;;12.30;5.72;;;;;;;26.44;48.78;98923.50;4487714;31;20096;-83
2022/08/30 05:30:16;;;;;;;12.20;5.53;;;;;;;26.71;47.54;98919.37;4486478;32;20120;-83
2022/08/30 05:32:42;;;;;;;11.18;5.12;;;;;;;26.88;46.96;98918.19;4486567;32;20052;-85
2022/08/30 05:35:08;;;;;;;11.32;5.32;;;;;;;27.03;46.60;98920.06;4487144;32;20154;-84
2022/08/30 05:37:34;;;;;;;11.37;5.00;;;;;;;26.97;46.53;98923.53;4486064;32;20130;-84
2022/08/30 05:40:00;;;;;;;12.15;5.12;;;;;;;27.17;45.62;98929.19;4487483;31;20419;-83
2022/08/30 05:42:25;;;;;;;10.95;5.60;;;;;;;27.25;44.20;98924.56;4486539;32;20196;-83
2022/08/30 05:44:52;;;;;;;12.65;5.37;;;;;;;27.25;44.29;98930.00;4487707;31;20126;-85
2022/08/30 05:47:18;;;;;;;10.10;4.62;;;;;;;27.33;43.97;98923.59;4483884;32;74885;-85
2022/08/30 05:49:44;;;;;;;11.65;5.07;;;;;;;27.41;43.81;98922.66;4487666;31;20096;-87
2022/08/30 05:52:11;;;;;;;11.45;4.97;;;;;;;27.48;43.33;98931.72;4487404;31;20132;-88
2022/08/30 05:54:37;;;;;;;11.52;5.87;;;;;;;27.55;43.20;98927.22;4486017;32;20116;-89
2022/08/30 05:57:02;;;;;;;11.70;5.32;;;;;;;27.60;42.30;98923.94;4487398;31;20367;-90
2022/08/30 05:59:28;;;;;;;11.57;5.40;;;;;;;27.67;41.52;98924.03;4486124;32;20140;-87
2022/08/30 06:01:56;;;;;;;9.85;4.87;;;;;;;27.74;41.38;98938.47;4487363;32;20142;-90
2022/08/30 06:04:21;;;;;;;10.40;5.12;;;;;;;27.57;40.69;98937.88;4487246;31;20104;-90
2022/08/30 06:06:47;;;;;;;10.77;5.28;;;;;;;27.67;40.93;98937.56;4487310;31;20337;-89
2022/08/30 06:09:13;;;;;;;11.32;5.03;;;;;;;27.72;40.96;98932.41;4487280;32;20076;-88
2022/08/30 06:11:39;;;;;;;11.90;5.70;;;;;;;27.74;40.81;98933.91;4487272;31;20145;-82
2022/08/30 06:14:05;;;;;;;12.40;5.82;;;;;;;27.80;40.70;98938.56;4487154;31;20120;-84
2022/08/30 06:16:30;;;;;;;10.93;5.12;;;;;;;27.78;40.29;98942.50;4486100;32;20487;-86
2022/08/30 06:18:57;;;;;;;13.77;5.78;;;;;;;27.92;40.25;98936.22;4487292;31;20088;-86
2022/08/30 06:21:26;;;;;;;12.98;5.60;;;;;;;28.01;40.26;98943.19;4487385;31;20084;-88
2022/08/30 06:23:52;;;;;;;12.20;4.65;;;;;;;28.08;39.77;98937.00;4495527;31;20164;-83
2022/08/30 06:26:17;;;;;;;10.90;5.07;;;;;;;28.07;39.69;98943.44;4472772;32;20511;-79
2022/08/30 06:28:44;;;;;;;11.93;5.55;;;;;;;28.18;39.44;98945.62;4487096;32;20154;-83
2022/08/30 06:31:10;;;;;;;11.40;5.45;;;;;;;28.12;39.67;98944.53;4474677;31;20487;-81
2022/08/30 06:33:36;;;;;;;11.68;5.53;;;;;;;28.08;39.76;98945.12;4473409;32;20108;-84
2022/08/30 06:36:07;;;;;;;12.93;5.00;;;;;;;27.72;39.86;98938.69;4487522;31;20100;-83
2022/08/30 06:38:33;;;;;;;11.10;5.28;;;;;;;27.90;40.11;98942.84;4502841;31;20481;-84
2022/08/30 06:40:58;;;;;;;11.88;5.62;;;;;;;28.07;39.67;98936.16;4502868;31;20080;-86
2022/08/30 06:43:24;;;;;;;10.45;4.85;;;;;;;27.85;39.71;98940.66;4492835;31;20168;-90
2022/08/30 06:45:49;;;;;;;10.35;4.53;;;;;;;27.92;40.21;98932.66;4495876;31;20148;-90
2022/08/30 06:48:15;;;;;;;11.15;5.00;;;;;;;27.87;40.24;98944.03;4487673;31;20169;-86
2022/08/30 06:50:41;;;;;;;9.85;4.37;;;;;;;27.74;40.11;98935.75;4492077;31;20111;-86
2022/08/30 06:53:07;;;;;;;12.32;5.12;;;;;;;27.65;40.73;98940.47;4487050;32;20444;-86
2022/08/30 06:55:32;;;;;;;12.02;5.30;;;;;;;27.73;40.45;98942.22;4472629;32;20096;-84
2022/08/30 06:58:02;;;;;;;11.63;5.20;;;;;;;27.76;39.75;98942.69;4472635;32;20145;-87
2022/08/30 07:00:27;;;;;;;11.55;5.20;;;;;;;27.77;39.75;98946.22;4486305;32;20164;-86
2022/08/30 07:02:53;;;;;;;12.70;5.70;;;;;;;27.87;39.74;98949.44;4484856;32;20100;-85
2022/08/30 07:05:21;;;;;;;12.40;5.07;;;;;;;27.76;40.19;98949.97;4470930;32;20387;-86
2022/08/30 07:07:47;;;;;;;11.50;5.28;;;;;;;27.72;40.37;98962.19;4485648;32;20084;-86
2022/08/30 07:10:13;;;;;;;10.30;4.80;;;;;;;27.80;40.38;98962.09;4485957;32;20110;-85
2022/08/30 07:12:39;;;;;;;12.18;5.30;;;;;;;27.11;41.38;98965.94;4471771;32;20152;-86
2022/08/30 07:15:05;;;;;;;11.05;5.07;;;;;;;27.31;41.40;98957.28;4486118;32;20128;-85
2022/08/30 07:20:15;;;;;;;10.93;5.07;;;;;;;27.73;39.79;98972.00;4484916;32;20118;-84
2022/08/30 07:22:41;;;;;;;10.82;4.78;;;;;;;27.85;39.20;98960.50;4469877;32;20100;-84
2022/08/30 07:25:06;;;;;;;11.70;5.00;;;;;;;27.34;40.56;98965.03;4471298;32;20169;-84
2022/08/30 07:27:32;;;;;;;11.52;5.25;;;;;;;27.84;40.14;98958.78;4458634;32;20110;-84
2022/08/30 07:29:58;;;;;;;11.00;5.28;;;;;;;28.21;39.09;98959.63;4486462;32;20389;-84
2022/08/30 07:32:24;;;;;;;12.63;5.37;;;;;;;28.24;38.79;98959.25;4472427;32;20088;-84
2022/08/30 07:34:49;;;;;;;11.35;4.75;;;;;;;28.24;37.98;98967.38;4486802;32;20512;-84
2022/08/30 07:37:15;;;;;;;10.70;5.40;;;;;;;28.20;38.80;98966.09;4486735;32;20100;-84
2022/08/30 07:39:40;;;;;;;11.65;5.28;;;;;;;28.41;38.33;98962.53;4472183;32;20084;-84
2022/08/30 07:42:06;;;;;;;12.73;5.18;;;;;;;28.82;37.64;98961.03;4472285;32;20168;-84
2022/08/30 07:44:32;;;;;;;10.05;4.55;;;;;;;28.99;37.22;98965.13;4486601;32;20144;-83
2022/08/30 07:46:58;;;;;;;11.77;4.70;;;;;;;29.43;35.98;98963.09;4472401;32;20349;-84
2022/08/30 07:49:23;;;;;;;10.85;4.75;;;;;;;29.60;35.44;98964.41;4472372;32;20206;-84
2022/08/30 07:51:50;;;;;;;10.98;4.18;;;;;;;29.92;34.71;98963.91;4486126;32;20088;-84
2022/08/30 07:54:16;;;;;;;10.65;4.57;;;;;;;30.22;33.59;98966.31;4486131;32;20095;-84
2022/08/30 07:56:41;;;;;;;12.80;4.85;;;;;;;30.33;33.31;98961.12;4486183;32;20137;-84
2022/08/30 07:59:06;;;;;;;13.25;4.72;;;;;;;30.12;34.47;98959.38;4486685;32;20077;-84
2022/08/30 08:01:32;;;;;;;10.32;4.72;;;;;;;30.44;34.28;98972.41;4473793;32;20096;-84
2022/08/30 08:03:57;;;;;;;12.10;4.45;;;;;;;30.65;32.95;98958.59;4487744;32;20427;-83
2022/08/30 08:06:23;;;;;;;11.18;4.53;;;;;;;30.54;33.15;98961.97;4488225;32;20352;-84
2022/08/30 08:08:50;;;;;;;10.63;4.53;;;;;;;30.76;32.60;98965.31;4474012;32;20148;-84
2022/08/30 08:11:23;;;;;;;10.02;4.40;;;;;;;30.66;32.81;98956.75;4488396;32;20108;-84
2022/08/30 08:13:50;;;;;;;12.80;4.45;;;;;;;30.73;32.55;98963.84;4473971;32;20092;-84
2022/08/30 08:16:15;;;;;;;15.13;4.28;;;;;;;30.10;33.46;98960.62;4473809;32;20096;-84
2022/08/30 08:18:41;;;;;;;11.55;4.50;;;;;;;29.89;33.34;98970.59;4473759;32;20110;-84
2022/08/30 08:21:06;;;;;;;10.85;4.05;;;;;;;30.26;33.06;98971.09;4473809;32;20118;-84
2022/08/30 08:23:32;;;;;;;11.45;5.03;;;;;;;30.53;32.89;98955.69;4473834;32;20119;-84
2022/08/30 08:25:58;;;;;;;10.93;4.50;;;;;;;30.64;33.02;98959.66;4473776;32;20084;-83
2022/08/30 08:28:23;;;;;;;9.98;4.32;;;;;;;30.82;33.19;98967.19;4487932;32;20372;-84
2022/08/30 08:30:49;;;;;;;10.57;4.32;;;;;;;30.95;32.26;98969.09;4487914;32;20097;-84
2022/08/30 08:33:15;;;;;;;12.13;4.65;;;;;;;30.93;32.48;98971.19;4487867;32;20085;-84
2022/08/30 08:35:41;;;;;;;13.40;4.50;;;;;;;30.85;31.93;98965.91;4473751;32;20172;-84
2022/08/30 08:38:06;;;;;;;10.27;4.10;;;;;;;30.59;32.21;98970.31;4473718;32;20081;-83
2022/08/30 08:40:45;;;;;;;10.20;3.92;;;;;;;30.55;32.47;98964.47;4473608;32;20158;-84
2022/08/30 08:43:16;;;;;;;11.82;4.55;;;;;;;30.37;32.69;98965.09;4487981;32;20143;-84
2022/08/30 08:45:59;;;;;;;12.80;4.60;;;;;;;29.50;33.97;98974.81;4487878;32;20100;-84
2022/08/30 08:48:30;;;;;;;9.23;4.07;;;;;;;29.83;33.62;98957.84;4487796;32;20369;-84
2022/08/30 08:53:43;;;;;;;11.15;4.32;;;;;;;29.68;33.91;98965.28;4475710;32;20164;-84
2022/08/30 08:56:11;;;;;;;10.90;4.05;;;;;;;29.30;34.65;98963.84;4473644;32;20156;-84
2022/08/30 08:58:43;;;;;;;10.13;4.30;;;;;;;29.18;35.27;98960.03;4473527;32;20111;-84
2022/08/30 09:01:11;;;;;;;11.25;4.62;;;;;;;29.31;34.91;98959.28;4487873;32;20088;-84
2022/08/30 09:03:36;;;;;;;9.90;4.65;;;;;;;29.13;35.63;98960.62;4487834;31;20080;-83
2022/08/30 09:06:08;;;;;;;14.30;4.65;;;;;;;29.31;35.85;98954.69;4473804;32;20119;-83
2022/08/30 09:08:35;;;;;;;12.48;4.90;;;;;;;29.68;35.99;98957.13;4473757;32;20464;-84
2022/08/30 09:11:04;;;;;;;11.43;4.68;;;;;;;29.70;35.76;98955.06;4473459;32;20123;-84
2022/08/30 09:13:29;;;;;;;11.02;4.32;;;;;;;29.94;35.60;98949.13;4487647;32;20096;-84
2022/08/30 09:15:57;;;;;;;11.10;4.62;;;;;;;30.13;35.15;98952.06;4487963;32;20072;-84
2022/08/30 09:18:41;;;;;;;;;;;;;;;30.17;35.13;98956.03;4488176;32;20344;-84
2022/08/30 09:21:08;;;;;;;10.93;4.65;;;;;;;29.73;35.21;98950.09;4487687;32;20335;-84
2022/08/30 09:23:33;;;;;;;14.30;4.80;;;;;;;30.28;34.99;98946.44;4487713;32;20490;-84
2022/08/30 09:26:02;;;;;;;11.48;4.80;;;;;;;30.63;34.00;98949.81;4473480;32;20096;-83
2022/08/30 09:28:48;;;;;;;12.48;4.82;;;;;;;30.76;33.82;98935.41;4487407;32;20080;-84
2022/08/30 09:31:21;;;;;;;12.02;4.78;;;;;;;30.84;33.86;98937.88;4487764;32;20137;-83
2022/08/30 09:34:06;;;;;;;11.25;4.70;;;;;;;30.95;33.66;98937.28;4473262;32;20120;-84
2022/08/30 09:36:38;;;;;;;11.32;4.60;;;;;;;30.78;33.51;98930.59;4487770;32;20115;-84
2022/08/30 09:39:05;;;;;;;11.30;4.50;;;;;;;31.04;33.01;98928.88;4473293;32;20473;-83
2022/08/30 09:41:43;;;;;;;11.35;4.60;;;;;;;31.09;32.66;98926.37;4473517;32;20100;-83
2022/08/30 09:44:22;;;;;;;10.52;4.95;;;;;;;31.01;32.64;98921.16;4487779;32;20084;-84
2022/08/30 09:46:56;;;;;;;11.48;4.78;;;;;;;30.92;32.88;98928.69;4473117;32;20111;-84
2022/08/30 09:49:31;;;;;;;10.93;4.45;;;;;;;30.88;33.25;98925.53;4487565;32;20106;-84
2022/08/30 09:52:27;;;;;;;11.95;4.82;;;;;;;30.84;33.00;98921.56;4487373;32;20733;-84
2022/08/30 09:55:07;;;;;;;11.80;4.62;;;;;;;30.73;33.28;98919.47;4487674;32;20084;-84
2022/08/30 09:57:44;;;;;;;11.45;4.40;;;;;;;30.66;33.74;98907.81;4487866;32;20085;-84
2022/08/30 10:00:14;;;;;;;;;;;;;;;30.52;33.56;98915.09;4487705;32;20163;-83
2022/08/30 10:03:01;;;;;;;10.88;4.50;;;;;;;30.69;33.36;98908.19;4473093;32;19989;-83
2022/08/30 10:05:51;;;;;;;11.40;4.85;;;;;;;30.69;33.09;98907.38;4473010;32;20091;-83
2022/08/30 10:08:33;;;;;;;10.93;4.72;;;;;;;30.75;32.99;98903.78;4487338;32;20122;-83
2022/08/30 10:11:02;;;;;;;10.35;4.62;;;;;;;30.76;33.06;98906.31;4487349;32;20076;-83
2022/08/30 10:13:37;;;;;;;10.43;4.37;;;;;;;30.90;32.72;98900.88;4473057;32;20100;-84
2022/08/30 10:16:25;;;;;;;11.48;4.35;;;;;;;31.06;32.47;98907.75;4487386;32;20112;-84
2022/08/30 10:19:28;;;;;;;11.00;4.67;;;;;;;30.14;33.56;98904.84;4487286;32;20144;-84
2022/08/30 10:22:24;;;;;;;12.00;4.55;;;;;;;30.65;33.12;98904.22;4486854;32;20084;-84
2022/08/30 10:24:52;;;;;;;10.70;4.72;;;;;;;30.68;32.69;98898.38;4472937;32;20100;-84
2022/08/30 10:27:47;;;;;;;10.98;4.80;;;;;;;30.90;32.64;98907.16;4472984;32;20100;-84
2022/08/30 10:30:13;;;;;;;10.68;4.60;;;;;;;31.10;32.36;98901.66;4473213;32;20092;-83
2022/08/30 10:33:00;;;;;;;12.50;4.72;;;;;;;31.30;31.89;98896.16;4487119;32;20088;-83
2022/08/30 10:35:33;;;;;;;11.38;4.57;;;;;;;31.53;31.37;98889.38;4472951;32;20135;-83
2022/08/30 10:38:03;;;;;;;10.63;4.65;;;;;;;31.55;31.44;98895.44;4472909;32;20135;-83
2022/08/30 10:43:49;;;;;;;9.65;4.20;;;;;;;31.43;31.81;98889.81;4487220;32;20095;-84
2022/08/30 10:46:38;;;;;;;11.45;4.82;;;;;;;31.75;31.37;98887.16;4487170;32;20092;-83
2022/08/30 10:49:09;;;;;;;13.18;4.50;;;;;;;30.85;32.88;98892.47;4476436;32;20088;-83
2022/08/30 10:51:45;;;;;;;11.88;4.95;;;;;;;30.50;33.12;98887.28;4472711;32;20122;-84
2022/08/30 10:54:30;;;;;;;10.05;4.43;;;;;;;30.86;32.92;98880.56;4472637;32;20088;-83
2022/08/30 10:56:56;;;;;;;11.23;4.40;;;;;;;31.25;32.58;98876.91;4487047;32;20395;-84
2022/08/30 10:59:21;;;;;;;9.48;4.40;;;;;;;31.35;32.51;98873.72;4486948;32;20088;-83
2022/08/30 11:01:59;;;;;;;9.35;4.55;;;;;;;31.43;32.33;98869.91;4472951;32;20084;-84
2022/08/30 11:05:22;;;;;;;9.77;4.60;;;;;;;31.37;32.22;98871.63;4472324;32;20149;-83
2022/08/30 11:08:12;;;;;;;10.93;4.75;;;;;;;31.32;31.80;98869.53;4407245;32;20433;-83
2022/08/30 11:10:52;;;;;;;12.88;4.70;;;;;;;31.26;32.29;98864.97;4407565;32;20106;-84
2022/08/30 11:13:22;;;;;;;11.12;4.60;;;;;;;31.32;31.51;98864.09;4394539;32;20086;-83
2022/08/30 11:15:56;;;;;;;11.60;4.90;;;;;;;31.24;32.26;98864.34;4394593;32;20077;-84
2022/08/30 11:18:22;;;;;;;11.95;4.78;;;;;;;31.21;32.52;98861.22;4407041;32;20200;-84
2022/08/30 11:20:50;;;;;;;12.00;4.85;;;;;;;30.43;33.42;98871.00;4407139;32;20098;-83
2022/08/30 11:23:22;;;;;;;10.55;4.70;;;;;;;29.84;34.38;98869.06;4394494;32;20098;-83
2022/08/30 11:26:00;;;;;;;10.50;4.45;;;;;;;30.33;33.89;98857.84;4406946;32;20143;-83
2022/08/30 11:28:34;;;;;;;11.32;4.80;;;;;;;30.33;33.77;98860.56;4407113;32;20106;-83
2022/08/30 11:31:20;;;;;;;11.00;4.95;;;;;;;30.53;33.50;98851.56;4394302;32;20323;-83
2022/08/30 11:33:47;;;;;;;12.07;4.55;;;;;;;30.58;33.74;98846.31;4395192;32;20120;-84
2022/08/30 11:36:27;;;;;;;10.23;4.85;;;;;;;30.13;34.50;98843.37;4406956;32;20081;-83
2022/08/30 11:38:53;;;;;;;14.90;5.10;;;;;;;30.37;34.02;98850.09;4453331;32;20120;-83
2022/08/30 11:41:45;;;;;;;11.38;4.85;;;;;;;30.27;34.21;98847.78;4486441;32;20360;-83
2022/08/30 11:44:22;;;;;;;10.55;4.28;;;;;;;30.26;34.06;98837.13;4468471;32;20865;-84